Olenek, Russia
Current Conditions -  °F | °C
As of 12:00 PM on Wednesday 22 Oct 2014 (Local Time) from UEEE Reporting Station
Clear Clear  
Wind Chill:   Ceiling: Unl
Heat Index:   Visibility: 6mi
Dew Point:   Wind: 4mph
Humidity: 85%   Direction: 350°N
Pressure: 29.41"   Gusts: NA
Location:  68.51°N, 112.49°E
Report Text: UEEE 220300Z 35002MPS CAVOK M13/M15 Q0996 NOSIG RMK QFE73923490237
Loading
Personal Weather Stations






























Interactive Weather Map
Tropical Storm Tracking
New forecast layout! Learn more

10-Day Weather Forecast

Advertisements
Track Severe Weather on mobile